Sydney Kingsford Smith International Airport
YSSY : now visible

Airfield :











YOU CAN JOIN US ON...

 
LOGIN :

Register | Disclaimer

   EN    FR    IT 

 









Legend :    VFR   Marginal VFR   IFR   Intensive IFR   Very Intensive IFR
Visi :
Ceiling :
>= 8 km
>= 3000ft
5 to 8 km
1000 to 3000 ft
1500m to 5 km
500 to 1000 ft
800 to 1500m
200 to 500 ft
< 800m
< 200 ft
Symbols :   Thunderstorms  Fog  Heavy snow  Heavy precipitations  Wind > 20 kt






- Airport Elevation : 21 ft
- IATA code : SYD


YSSY - Sydney Kingsford Smith International

CURRENT METAR :
  • 290730Z 24015KT CAVOK 14/05 Q1005

EXPIRED METARs :
  • 290700Z 24015KT 9999 FEW040 14/04 Q1005
  • 290630Z 24016KT CAVOK 15/04 Q1005
  • 290600Z 25016KT 9999 FEW040 16/04 Q1005
  • 290530Z 26015KT 9999 FEW040 16/03 Q1005
  • 290500Z 25015KT 9999 FEW040 17/04 Q1005

TAF TAF YSSY
Valid from the 29 at 06:00 until the 30 at 12:00 UTC


290515Z 2906/3012 25012KT CAVOK
FM291400 30007KT CAVOK
FM292200 33012KT CAVOK
FM300300 02014KT 9999 -SHRA BKN060
FM300800 32016G26KT 9999 -SHRA FEW030 BKN040
FM301000 30016G26KT 9999 NSW FEW040 INTER 3007/3010 VRB20G35KT 4000 SHRA SCT018
YMMM FIR / Oceania



MET'MAP, your aeronautical weather chart ! - Copyright ORBIFLY December 2007 - Disclaimer

ORBIFLY MET'MAP TEAM :

Programming & Development : Alexandra Zaïnal
Original concept : Baudouin d'Aumeries
Technical & hardware support : Manuel Goepfert
Assistance : Marc-Olivier Méhu

Contact : metmap@orbifly.com




SOURCES & CREDITS :

   NOAA       Earth
Advisory